sensor_id;sensor_type;location;lat;lon;timestamp;P1;durP1;ratioP1;P2;durP2;ratioP2
18166;SDS011;9208;42.688;23.404;2022-08-19T00:00:06;6.20;;;5.60;;
18166;SDS011;9208;42.688;23.404;2022-08-19T00:02:35;6.10;;;5.60;;
18166;SDS011;9208;42.688;23.404;2022-08-19T00:05:01;6.47;;;5.70;;
18166;SDS011;9208;42.688;23.404;2022-08-19T00:07:28;6.03;;;5.53;;
18166;SDS011;9208;42.688;23.404;2022-08-19T00:09:53;5.77;;;5.30;;
18166;SDS011;9208;42.688;23.404;2022-08-19T00:12:19;6.30;;;5.13;;
18166;SDS011;9208;42.688;23.404;2022-08-19T00:14:44;6.53;;;5.30;;
18166;SDS011;9208;42.688;23.404;2022-08-19T00:17:10;6.23;;;5.53;;
18166;SDS011;9208;42.688;23.404;2022-08-19T00:19:36;5.93;;;5.43;;
18166;SDS011;9208;42.688;23.404;2022-08-19T00:22:02;5.90;;;5.10;;
18166;SDS011;9208;42.688;23.404;2022-08-19T00:24:28;6.20;;;5.60;;
18166;SDS011;9208;42.688;23.404;2022-08-19T00:26:54;7.57;;;5.60;;
18166;SDS011;9208;42.688;23.404;2022-08-19T00:29:21;6.87;;;6.03;;
18166;SDS011;9208;42.688;23.404;2022-08-19T00:31:48;6.20;;;5.60;;
18166;SDS011;9208;42.688;23.404;2022-08-19T00:34:15;6.43;;;4.97;;
18166;SDS011;9208;42.688;23.404;2022-08-19T00:36:41;6.20;;;5.60;;
18166;SDS011;9208;42.688;23.404;2022-08-19T00:39:11;6.13;;;5.53;;
18166;SDS011;9208;42.688;23.404;2022-08-19T00:41:37;6.53;;;5.90;;
18166;SDS011;9208;42.688;23.404;2022-08-19T00:44:04;6.70;;;5.97;;
18166;SDS011;9208;42.688;23.404;2022-08-19T00:46:33;8.17;;;5.60;;
18166;SDS011;9208;42.688;23.404;2022-08-19T00:49:02;7.77;;;5.77;;
18166;SDS011;9208;42.688;23.404;2022-08-19T00:51:34;6.20;;;5.60;;
18166;SDS011;9208;42.688;23.404;2022-08-19T00:54:00;7.57;;;6.10;;
18166;SDS011;9208;42.688;23.404;2022-08-19T00:56:27;6.57;;;5.90;;
18166;SDS011;9208;42.688;23.404;2022-08-19T00:58:56;7.37;;;6.00;;
18166;SDS011;9208;42.688;23.404;2022-08-19T01:01:23;7.37;;;5.63;;
18166;SDS011;9208;42.688;23.404;2022-08-19T01:03:49;6.40;;;5.90;;
18166;SDS011;9208;42.688;23.404;2022-08-19T01:06:14;6.30;;;5.70;;
18166;SDS011;9208;42.688;23.404;2022-08-19T01:08:40;6.53;;;5.73;;
18166;SDS011;9208;42.688;23.404;2022-08-19T01:11:05;6.73;;;5.53;;
18166;SDS011;9208;42.688;23.404;2022-08-19T01:13:33;6.40;;;5.77;;
18166;SDS011;9208;42.688;23.404;2022-08-19T01:16:03;6.77;;;5.77;;
18166;SDS011;9208;42.688;23.404;2022-08-19T01:18:32;6.07;;;5.47;;
18166;SDS011;9208;42.688;23.404;2022-08-19T01:21:05;6.60;;;6.07;;
18166;SDS011;9208;42.688;23.404;2022-08-19T01:23:35;6.87;;;5.90;;
18166;SDS011;9208;42.688;23.404;2022-08-19T01:26:11;7.37;;;5.80;;
18166;SDS011;9208;42.688;23.404;2022-08-19T01:28:41;6.53;;;6.03;;
18166;SDS011;9208;42.688;23.404;2022-08-19T01:31:09;5.87;;;5.40;;
18166;SDS011;9208;42.688;23.404;2022-08-19T01:33:37;6.27;;;5.70;;
18166;SDS011;9208;42.688;23.404;2022-08-19T01:36:16;6.30;;;5.70;;
18166;SDS011;9208;42.688;23.404;2022-08-19T01:38:50;6.23;;;5.60;;
18166;SDS011;9208;42.688;23.404;2022-08-19T01:41:17;6.90;;;6.37;;
18166;SDS011;9208;42.688;23.404;2022-08-19T01:43:43;7.20;;;6.60;;
18166;SDS011;9208;42.688;23.404;2022-08-19T01:46:09;7.17;;;6.53;;
18166;SDS011;9208;42.688;23.404;2022-08-19T01:48:36;7.30;;;6.57;;
18166;SDS011;9208;42.688;23.404;2022-08-19T01:51:04;12.37;;;7.67;;
18166;SDS011;9208;42.688;23.404;2022-08-19T01:53:30;9.10;;;7.47;;
18166;SDS011;9208;42.688;23.404;2022-08-19T01:55:56;9.60;;;7.87;;
18166;SDS011;9208;42.688;23.404;2022-08-19T01:58:24;7.90;;;7.10;;
18166;SDS011;9208;42.688;23.404;2022-08-19T02:00:55;7.30;;;6.60;;
18166;SDS011;9208;42.688;23.404;2022-08-19T02:03:22;7.90;;;6.33;;
18166;SDS011;9208;42.688;23.404;2022-08-19T02:05:52;7.27;;;6.67;;
18166;SDS011;9208;42.688;23.404;2022-08-19T02:08:20;7.30;;;6.60;;
18166;SDS011;9208;42.688;23.404;2022-08-19T02:10:45;8.07;;;6.80;;
18166;SDS011;9208;42.688;23.404;2022-08-19T02:13:11;7.60;;;6.90;;
18166;SDS011;9208;42.688;23.404;2022-08-19T02:15:38;7.77;;;6.93;;
18166;SDS011;9208;42.688;23.404;2022-08-19T02:18:04;8.63;;;7.27;;
18166;SDS011;9208;42.688;23.404;2022-08-19T02:20:30;7.67;;;6.87;;
18166;SDS011;9208;42.688;23.404;2022-08-19T02:22:55;9.27;;;7.00;;
18166;SDS011;9208;42.688;23.404;2022-08-19T02:25:21;10.27;;;6.90;;
18166;SDS011;9208;42.688;23.404;2022-08-19T02:27:46;9.73;;;8.83;;
18166;SDS011;9208;42.688;23.404;2022-08-19T02:30:14;7.53;;;5.93;;
18166;SDS011;9208;42.688;23.404;2022-08-19T02:32:42;8.13;;;7.43;;
18166;SDS011;9208;42.688;23.404;2022-08-19T02:35:08;11.67;;;6.57;;
18166;SDS011;9208;42.688;23.404;2022-08-19T02:37:34;6.47;;;5.97;;
18166;SDS011;9208;42.688;23.404;2022-08-19T02:40:19;6.80;;;6.00;;
18166;SDS011;9208;42.688;23.404;2022-08-19T02:42:44;8.70;;;6.83;;
18166;SDS011;9208;42.688;23.404;2022-08-19T02:45:11;7.67;;;6.20;;
18166;SDS011;9208;42.688;23.404;2022-08-19T02:47:38;8.03;;;6.80;;
18166;SDS011;9208;42.688;23.404;2022-08-19T02:50:04;7.30;;;6.60;;
18166;SDS011;9208;42.688;23.404;2022-08-19T02:52:31;8.63;;;6.23;;
18166;SDS011;9208;42.688;23.404;2022-08-19T02:54:58;6.43;;;5.90;;
18166;SDS011;9208;42.688;23.404;2022-08-19T02:57:23;6.97;;;6.37;;
18166;SDS011;9208;42.688;23.404;2022-08-19T02:59:49;7.00;;;6.17;;
18166;SDS011;9208;42.688;23.404;2022-08-19T03:02:15;8.00;;;6.30;;
18166;SDS011;9208;42.688;23.404;2022-08-19T03:04:41;7.20;;;6.60;;
18166;SDS011;9208;42.688;23.404;2022-08-19T03:07:07;8.37;;;7.67;;
18166;SDS011;9208;42.688;23.404;2022-08-19T03:09:33;10.07;;;9.07;;
18166;SDS011;9208;42.688;23.404;2022-08-19T03:12:02;7.70;;;7.00;;
18166;SDS011;9208;42.688;23.404;2022-08-19T03:14:32;8.77;;;7.33;;
18166;SDS011;9208;42.688;23.404;2022-08-19T03:16:59;7.63;;;6.93;;
18166;SDS011;9208;42.688;23.404;2022-08-19T03:19:25;8.00;;;7.20;;
18166;SDS011;9208;42.688;23.404;2022-08-19T03:21:50;7.03;;;6.43;;
18166;SDS011;9208;42.688;23.404;2022-08-19T03:24:17;8.13;;;7.33;;
18166;SDS011;9208;42.688;23.404;2022-08-19T03:26:44;7.57;;;6.87;;
18166;SDS011;9208;42.688;23.404;2022-08-19T03:29:13;7.60;;;7.00;;
18166;SDS011;9208;42.688;23.404;2022-08-19T03:31:40;7.33;;;6.73;;
18166;SDS011;9208;42.688;23.404;2022-08-19T03:34:08;7.50;;;6.80;;
18166;SDS011;9208;42.688;23.404;2022-08-19T03:36:34;6.77;;;6.17;;
18166;SDS011;9208;42.688;23.404;2022-08-19T03:39:00;7.07;;;6.43;;
18166;SDS011;9208;42.688;23.404;2022-08-19T03:41:44;8.03;;;7.23;;
18166;SDS011;9208;42.688;23.404;2022-08-19T03:44:15;7.10;;;6.37;;
18166;SDS011;9208;42.688;23.404;2022-08-19T03:46:53;6.73;;;6.07;;
18166;SDS011;9208;42.688;23.404;2022-08-19T03:49:20;7.00;;;6.30;;
18166;SDS011;9208;42.688;23.404;2022-08-19T03:51:47;6.50;;;5.97;;
18166;SDS011;9208;42.688;23.404;2022-08-19T03:54:14;7.30;;;6.60;;
18166;SDS011;9208;42.688;23.404;2022-08-19T03:56:42;7.30;;;6.70;;
18166;SDS011;9208;42.688;23.404;2022-08-19T03:59:10;7.17;;;6.57;;
18166;SDS011;9208;42.688;23.404;2022-08-19T04:01:43;8.73;;;6.70;;
18166;SDS011;9208;42.688;23.404;2022-08-19T04:04:09;7.97;;;7.17;;
18166;SDS011;9208;42.688;23.404;2022-08-19T04:06:35;7.60;;;6.90;;
18166;SDS011;9208;42.688;23.404;2022-08-19T04:09:03;7.20;;;6.50;;
18166;SDS011;9208;42.688;23.404;2022-08-19T04:11:37;9.33;;;8.00;;
18166;SDS011;9208;42.688;23.404;2022-08-19T04:14:09;7.33;;;6.70;;
18166;SDS011;9208;42.688;23.404;2022-08-19T04:16:40;6.70;;;6.20;;
18166;SDS011;9208;42.688;23.404;2022-08-19T04:19:06;7.33;;;6.33;;
18166;SDS011;9208;42.688;23.404;2022-08-19T04:21:32;9.87;;;7.10;;
18166;SDS011;9208;42.688;23.404;2022-08-19T04:23:58;6.27;;;5.70;;
18166;SDS011;9208;42.688;23.404;2022-08-19T04:26:29;6.60;;;5.60;;
18166;SDS011;9208;42.688;23.404;2022-08-19T04:28:58;6.30;;;5.70;;
18166;SDS011;9208;42.688;23.404;2022-08-19T04:31:26;6.10;;;5.30;;
18166;SDS011;9208;42.688;23.404;2022-08-19T04:33:53;6.10;;;5.57;;
18166;SDS011;9208;42.688;23.404;2022-08-19T04:36:22;6.10;;;5.50;;
18166;SDS011;9208;42.688;23.404;2022-08-19T04:38:50;5.97;;;5.47;;
18166;SDS011;9208;42.688;23.404;2022-08-19T04:41:18;5.97;;;5.47;;
18166;SDS011;9208;42.688;23.404;2022-08-19T04:44:02;6.03;;;5.53;;
18166;SDS011;9208;42.688;23.404;2022-08-19T04:46:29;7.03;;;5.50;;
18166;SDS011;9208;42.688;23.404;2022-08-19T04:48:57;6.60;;;5.97;;
18166;SDS011;9208;42.688;23.404;2022-08-19T04:51:24;6.47;;;5.80;;
18166;SDS011;9208;42.688;23.404;2022-08-19T04:53:49;6.60;;;6.00;;
18166;SDS011;9208;42.688;23.404;2022-08-19T04:56:17;8.07;;;7.23;;
18166;SDS011;9208;42.688;23.404;2022-08-19T04:58:46;7.50;;;6.10;;
18166;SDS011;9208;42.688;23.404;2022-08-19T05:01:14;5.77;;;5.37;;
18166;SDS011;9208;42.688;23.404;2022-08-19T05:03:43;7.87;;;5.90;;
18166;SDS011;9208;42.688;23.404;2022-08-19T05:06:11;5.83;;;5.37;;
18166;SDS011;9208;42.688;23.404;2022-08-19T05:08:39;6.13;;;5.63;;
18166;SDS011;9208;42.688;23.404;2022-08-19T05:11:12;5.80;;;5.30;;
18166;SDS011;9208;42.688;23.404;2022-08-19T05:13:38;6.07;;;5.57;;
18166;SDS011;9208;42.688;23.404;2022-08-19T05:16:04;6.20;;;5.60;;
18166;SDS011;9208;42.688;23.404;2022-08-19T05:18:30;6.40;;;5.80;;
18166;SDS011;9208;42.688;23.404;2022-08-19T05:21:18;5.87;;;5.37;;
18166;SDS011;9208;42.688;23.404;2022-08-19T05:24:04;7.60;;;6.33;;
18166;SDS011;9208;42.688;23.404;2022-08-19T05:26:33;7.23;;;6.07;;
18166;SDS011;9208;42.688;23.404;2022-08-19T05:29:00;6.30;;;5.77;;
18166;SDS011;9208;42.688;23.404;2022-08-19T05:31:25;7.43;;;6.40;;
18166;SDS011;9208;42.688;23.404;2022-08-19T05:33:51;6.87;;;6.03;;
18166;SDS011;9208;42.688;23.404;2022-08-19T05:36:16;7.80;;;5.97;;
18166;SDS011;9208;42.688;23.404;2022-08-19T05:38:43;6.83;;;5.83;;
18166;SDS011;9208;42.688;23.404;2022-08-19T05:41:09;6.70;;;6.10;;
18166;SDS011;9208;42.688;23.404;2022-08-19T05:43:37;6.80;;;6.10;;
18166;SDS011;9208;42.688;23.404;2022-08-19T05:46:03;7.50;;;6.87;;
18166;SDS011;9208;42.688;23.404;2022-08-19T05:48:31;8.50;;;6.00;;
18166;SDS011;9208;42.688;23.404;2022-08-19T05:50:57;6.97;;;6.33;;
18166;SDS011;9208;42.688;23.404;2022-08-19T05:53:25;6.67;;;6.07;;
18166;SDS011;9208;42.688;23.404;2022-08-19T05:55:51;7.80;;;6.80;;
18166;SDS011;9208;42.688;23.404;2022-08-19T05:58:16;7.27;;;6.67;;
18166;SDS011;9208;42.688;23.404;2022-08-19T06:00:43;7.10;;;6.50;;
18166;SDS011;9208;42.688;23.404;2022-08-19T06:03:10;6.73;;;6.23;;
18166;SDS011;9208;42.688;23.404;2022-08-19T06:05:35;6.77;;;6.17;;
18166;SDS011;9208;42.688;23.404;2022-08-19T06:08:01;11.40;;;6.67;;
18166;SDS011;9208;42.688;23.404;2022-08-19T06:10:26;11.67;;;7.03;;
18166;SDS011;9208;42.688;23.404;2022-08-19T06:12:52;9.33;;;6.77;;
18166;SDS011;9208;42.688;23.404;2022-08-19T06:15:18;7.93;;;7.17;;
18166;SDS011;9208;42.688;23.404;2022-08-19T06:17:44;7.53;;;6.63;;
18166;SDS011;9208;42.688;23.404;2022-08-19T06:20:10;9.33;;;7.20;;
18166;SDS011;9208;42.688;23.404;2022-08-19T06:22:42;7.73;;;6.93;;
18166;SDS011;9208;42.688;23.404;2022-08-19T06:25:12;6.97;;;6.37;;
18166;SDS011;9208;42.688;23.404;2022-08-19T06:27:39;7.30;;;6.40;;
18166;SDS011;9208;42.688;23.404;2022-08-19T06:30:05;7.40;;;6.73;;
18166;SDS011;9208;42.688;23.404;2022-08-19T06:32:31;7.17;;;6.47;;
18166;SDS011;9208;42.688;23.404;2022-08-19T06:34:57;10.70;;;7.40;;
18166;SDS011;9208;42.688;23.404;2022-08-19T06:37:23;9.73;;;7.57;;
18166;SDS011;9208;42.688;23.404;2022-08-19T06:39:51;10.27;;;6.63;;
18166;SDS011;9208;42.688;23.404;2022-08-19T06:42:16;6.77;;;6.07;;
18166;SDS011;9208;42.688;23.404;2022-08-19T06:44:44;7.27;;;6.20;;
18166;SDS011;9208;42.688;23.404;2022-08-19T06:47:13;6.00;;;5.50;;
18166;SDS011;9208;42.688;23.404;2022-08-19T06:49:40;6.90;;;6.20;;
18166;SDS011;9208;42.688;23.404;2022-08-19T06:52:06;8.33;;;6.83;;
18166;SDS011;9208;42.688;23.404;2022-08-19T06:54:32;7.83;;;6.00;;
18166;SDS011;9208;42.688;23.404;2022-08-19T06:56:58;7.17;;;6.47;;
18166;SDS011;9208;42.688;23.404;2022-08-19T06:59:27;7.40;;;6.70;;
18166;SDS011;9208;42.688;23.404;2022-08-19T07:01:55;6.97;;;6.33;;
18166;SDS011;9208;42.688;23.404;2022-08-19T07:04:23;6.63;;;5.90;;
18166;SDS011;9208;42.688;23.404;2022-08-19T07:06:57;6.43;;;5.93;;
18166;SDS011;9208;42.688;23.404;2022-08-19T07:09:25;6.67;;;6.17;;
18166;SDS011;9208;42.688;23.404;2022-08-19T07:11:51;8.67;;;6.10;;
18166;SDS011;9208;42.688;23.404;2022-08-19T07:14:19;6.90;;;6.20;;
18166;SDS011;9208;42.688;23.404;2022-08-19T07:16:51;7.03;;;5.83;;
18166;SDS011;9208;42.688;23.404;2022-08-19T07:19:19;7.13;;;6.33;;
18166;SDS011;9208;42.688;23.404;2022-08-19T07:21:47;11.70;;;6.60;;
18166;SDS011;9208;42.688;23.404;2022-08-19T07:24:14;7.40;;;6.03;;
18166;SDS011;9208;42.688;23.404;2022-08-19T07:26:41;6.13;;;5.63;;
18166;SDS011;9208;42.688;23.404;2022-08-19T07:29:08;7.53;;;5.70;;
18166;SDS011;9208;42.688;23.404;2022-08-19T07:31:34;6.50;;;5.97;;
18166;SDS011;9208;42.688;23.404;2022-08-19T07:34:02;6.87;;;6.03;;
18166;SDS011;9208;42.688;23.404;2022-08-19T07:36:32;9.17;;;6.17;;
18166;SDS011;9208;42.688;23.404;2022-08-19T07:39:01;6.40;;;5.83;;
18166;SDS011;9208;42.688;23.404;2022-08-19T07:41:31;6.83;;;5.50;;
18166;SDS011;9208;42.688;23.404;2022-08-19T07:43:58;6.27;;;5.77;;
18166;SDS011;9208;42.688;23.404;2022-08-19T07:46:28;5.80;;;5.13;;
18166;SDS011;9208;42.688;23.404;2022-08-19T07:48:56;8.57;;;5.83;;
18166;SDS011;9208;42.688;23.404;2022-08-19T07:51:21;5.57;;;5.17;;
18166;SDS011;9208;42.688;23.404;2022-08-19T07:53:48;6.40;;;5.80;;
18166;SDS011;9208;42.688;23.404;2022-08-19T07:56:16;6.73;;;6.00;;
18166;SDS011;9208;42.688;23.404;2022-08-19T07:58:44;6.93;;;6.33;;
18166;SDS011;9208;42.688;23.404;2022-08-19T08:01:12;9.57;;;6.37;;
18166;SDS011;9208;42.688;23.404;2022-08-19T08:03:40;8.83;;;5.93;;
18166;SDS011;9208;42.688;23.404;2022-08-19T08:06:25;8.87;;;5.90;;
18166;SDS011;9208;42.688;23.404;2022-08-19T08:09:09;7.37;;;6.13;;
18166;SDS011;9208;42.688;23.404;2022-08-19T08:11:51;6.43;;;5.57;;
18166;SDS011;9208;42.688;23.404;2022-08-19T08:14:19;8.60;;;6.37;;
18166;SDS011;9208;42.688;23.404;2022-08-19T08:16:48;15.23;;;6.57;;
18166;SDS011;9208;42.688;23.404;2022-08-19T08:19:16;13.50;;;6.43;;
18166;SDS011;9208;42.688;23.404;2022-08-19T08:21:45;7.97;;;5.87;;
18166;SDS011;9208;42.688;23.404;2022-08-19T08:24:11;6.43;;;5.80;;
18166;SDS011;9208;42.688;23.404;2022-08-19T08:26:37;6.90;;;5.70;;
18166;SDS011;9208;42.688;23.404;2022-08-19T08:29:04;6.70;;;6.03;;
18166;SDS011;9208;42.688;23.404;2022-08-19T08:31:32;11.60;;;6.53;;
18166;SDS011;9208;42.688;23.404;2022-08-19T08:33:58;7.40;;;6.13;;
18166;SDS011;9208;42.688;23.404;2022-08-19T08:36:24;6.97;;;6.13;;
18166;SDS011;9208;42.688;23.404;2022-08-19T08:38:50;10.73;;;5.93;;
18166;SDS011;9208;42.688;23.404;2022-08-19T08:44:00;7.00;;;6.20;;
18166;SDS011;9208;42.688;23.404;2022-08-19T08:49:20;9.17;;;5.43;;
18166;SDS011;9208;42.688;23.404;2022-08-19T08:51:54;6.50;;;5.20;;
18166;SDS011;9208;42.688;23.404;2022-08-19T08:54:36;6.20;;;5.60;;
18166;SDS011;9208;42.688;23.404;2022-08-19T08:57:10;5.80;;;5.30;;
18166;SDS011;9208;42.688;23.404;2022-08-19T08:59:40;9.00;;;5.53;;
18166;SDS011;9208;42.688;23.404;2022-08-19T09:02:10;5.67;;;5.27;;
18166;SDS011;9208;42.688;23.404;2022-08-19T09:04:36;5.53;;;5.13;;
18166;SDS011;9208;42.688;23.404;2022-08-19T09:10:02;6.00;;;5.43;;
18166;SDS011;9208;42.688;23.404;2022-08-19T09:15:20;5.60;;;5.00;;
18166;SDS011;9208;42.688;23.404;2022-08-19T09:17:52;5.00;;;4.60;;
18166;SDS011;9208;42.688;23.404;2022-08-19T09:20:24;11.13;;;5.13;;
18166;SDS011;9208;42.688;23.404;2022-08-19T09:22:50;7.10;;;4.87;;
18166;SDS011;9208;42.688;23.404;2022-08-19T09:25:20;5.50;;;5.00;;
18166;SDS011;9208;42.688;23.404;2022-08-19T09:27:47;5.05;;;4.60;;
18166;SDS011;9208;42.688;23.404;2022-08-19T09:30:19;5.72;;;4.65;;
18166;SDS011;9208;42.688;23.404;2022-08-19T09:32:47;5.10;;;4.60;;
18166;SDS011;9208;42.688;23.404;2022-08-19T09:35:13;5.35;;;4.60;;
18166;SDS011;9208;42.688;23.404;2022-08-19T09:37:40;6.00;;;4.50;;
18166;SDS011;9208;42.688;23.404;2022-08-19T09:40:06;5.10;;;4.70;;
18166;SDS011;9208;42.688;23.404;2022-08-19T09:42:32;5.25;;;4.75;;
18166;SDS011;9208;42.688;23.404;2022-08-19T09:44:58;4.90;;;4.60;;
18166;SDS011;9208;42.688;23.404;2022-08-19T09:47:24;4.20;;;3.90;;
18166;SDS011;9208;42.688;23.404;2022-08-19T09:49:49;4.20;;;3.90;;
18166;SDS011;9208;42.688;23.404;2022-08-19T09:52:15;4.82;;;4.43;;
18166;SDS011;9208;42.688;23.404;2022-08-19T09:54:41;4.15;;;3.75;;
18166;SDS011;9208;42.688;23.404;2022-08-19T09:57:07;4.18;;;3.78;;
18166;SDS011;9208;42.688;23.404;2022-08-19T09:59:32;3.92;;;3.63;;
18166;SDS011;9208;42.688;23.404;2022-08-19T10:01:59;3.95;;;3.65;;
18166;SDS011;9208;42.688;23.404;2022-08-19T10:04:25;4.57;;;4.18;;
18166;SDS011;9208;42.688;23.404;2022-08-19T10:07:11;6.00;;;5.50;;
18166;SDS011;9208;42.688;23.404;2022-08-19T10:09:36;5.53;;;5.07;;
18166;SDS011;9208;42.688;23.404;2022-08-19T10:12:03;4.63;;;4.30;;
18166;SDS011;9208;42.688;23.404;2022-08-19T10:14:29;3.97;;;3.65;;
18166;SDS011;9208;42.688;23.404;2022-08-19T10:16:55;4.20;;;3.80;;
18166;SDS011;9208;42.688;23.404;2022-08-19T10:19:21;5.75;;;4.00;;
18166;SDS011;9208;42.688;23.404;2022-08-19T10:21:47;7.50;;;4.40;;
18166;SDS011;9208;42.688;23.404;2022-08-19T10:24:12;7.80;;;4.47;;
18166;SDS011;9208;42.688;23.404;2022-08-19T10:26:39;4.80;;;3.95;;
18166;SDS011;9208;42.688;23.404;2022-08-19T10:29:09;5.75;;;4.50;;
18166;SDS011;9208;42.688;23.404;2022-08-19T10:31:36;6.70;;;4.22;;
18166;SDS011;9208;42.688;23.404;2022-08-19T10:34:02;7.18;;;4.45;;
18166;SDS011;9208;42.688;23.404;2022-08-19T10:36:29;6.82;;;3.88;;
18166;SDS011;9208;42.688;23.404;2022-08-19T10:38:58;3.95;;;3.40;;
18166;SDS011;9208;42.688;23.404;2022-08-19T10:41:31;4.47;;;4.07;;
18166;SDS011;9208;42.688;23.404;2022-08-19T10:44:03;4.63;;;4.32;;
18166;SDS011;9208;42.688;23.404;2022-08-19T10:46:31;4.75;;;4.07;;
18166;SDS011;9208;42.688;23.404;2022-08-19T10:49:00;5.78;;;4.32;;
18166;SDS011;9208;42.688;23.404;2022-08-19T10:51:26;4.63;;;4.22;;
18166;SDS011;9208;42.688;23.404;2022-08-19T10:54:10;4.28;;;3.88;;
18166;SDS011;9208;42.688;23.404;2022-08-19T10:56:39;6.68;;;4.18;;
18166;SDS011;9208;42.688;23.404;2022-08-19T10:59:21;6.00;;;4.38;;
18166;SDS011;9208;42.688;23.404;2022-08-19T11:01:48;4.88;;;4.35;;
18166;SDS011;9208;42.688;23.404;2022-08-19T11:04:15;4.57;;;4.18;;
18166;SDS011;9208;42.688;23.404;2022-08-19T11:06:48;4.82;;;4.30;;
18166;SDS011;9208;42.688;23.404;2022-08-19T11:09:16;4.60;;;4.20;;
18166;SDS011;9208;42.688;23.404;2022-08-19T11:11:46;4.80;;;4.32;;
18166;SDS011;9208;42.688;23.404;2022-08-19T11:14:15;4.53;;;4.03;;
18166;SDS011;9208;42.688;23.404;2022-08-19T11:16:43;6.28;;;4.25;;
18166;SDS011;9208;42.688;23.404;2022-08-19T11:19:10;5.47;;;4.38;;
18166;SDS011;9208;42.688;23.404;2022-08-19T11:21:38;5.32;;;4.60;;
18166;SDS011;9208;42.688;23.404;2022-08-19T11:24:15;4.72;;;4.32;;
18166;SDS011;9208;42.688;23.404;2022-08-19T11:26:45;5.28;;;4.30;;
18166;SDS011;9208;42.688;23.404;2022-08-19T11:29:14;4.75;;;4.18;;
18166;SDS011;9208;42.688;23.404;2022-08-19T11:31:43;4.72;;;4.32;;
18166;SDS011;9208;42.688;23.404;2022-08-19T11:34:11;4.32;;;4.00;;
18166;SDS011;9208;42.688;23.404;2022-08-19T11:36:41;4.68;;;4.28;;
18166;SDS011;9208;42.688;23.404;2022-08-19T11:39:09;6.85;;;4.50;;
18166;SDS011;9208;42.688;23.404;2022-08-19T11:41:38;5.85;;;4.32;;
18166;SDS011;9208;42.688;23.404;2022-08-19T11:44:03;7.13;;;4.43;;
18166;SDS011;9208;42.688;23.404;2022-08-19T11:46:29;6.80;;;4.82;;
18166;SDS011;9208;42.688;23.404;2022-08-19T11:48:56;6.40;;;4.93;;
18166;SDS011;9208;42.688;23.404;2022-08-19T11:51:24;4.28;;;3.97;;
18166;SDS011;9208;42.688;23.404;2022-08-19T11:53:51;4.68;;;4.28;;
18166;SDS011;9208;42.688;23.404;2022-08-19T11:56:18;8.23;;;4.70;;
18166;SDS011;9208;42.688;23.404;2022-08-19T11:58:45;4.45;;;4.07;;
18166;SDS011;9208;42.688;23.404;2022-08-19T12:01:11;5.68;;;5.13;;
18166;SDS011;9208;42.688;23.404;2022-08-19T12:03:39;4.32;;;4.00;;
18166;SDS011;9208;42.688;23.404;2022-08-19T12:06:06;9.02;;;4.75;;
18166;SDS011;9208;42.688;23.404;2022-08-19T12:08:40;6.93;;;4.80;;
18166;SDS011;9208;42.688;23.404;2022-08-19T12:11:06;4.63;;;4.22;;
18166;SDS011;9208;42.688;23.404;2022-08-19T12:13:35;5.35;;;4.82;;
18166;SDS011;9208;42.688;23.404;2022-08-19T12:16:09;6.22;;;4.85;;
18166;SDS011;9208;42.688;23.404;2022-08-19T12:18:40;7.50;;;5.07;;
18166;SDS011;9208;42.688;23.404;2022-08-19T12:21:10;6.68;;;4.93;;
18166;SDS011;9208;42.688;23.404;2022-08-19T12:23:37;4.63;;;4.22;;
18166;SDS011;9208;42.688;23.404;2022-08-19T12:26:02;5.05;;;4.32;;
18166;SDS011;9208;42.688;23.404;2022-08-19T12:28:29;6.97;;;4.13;;
18166;SDS011;9208;42.688;23.404;2022-08-19T12:30:55;5.75;;;4.35;;
18166;SDS011;9208;42.688;23.404;2022-08-19T12:33:21;8.68;;;4.97;;
18166;SDS011;9208;42.688;23.404;2022-08-19T12:35:50;6.82;;;4.78;;
18166;SDS011;9208;42.688;23.404;2022-08-19T12:38:16;6.18;;;4.88;;
18166;SDS011;9208;42.688;23.404;2022-08-19T12:40:45;7.07;;;4.90;;
18166;SDS011;9208;42.688;23.404;2022-08-19T12:43:11;13.00;;;6.18;;
18166;SDS011;9208;42.688;23.404;2022-08-19T12:45:37;6.25;;;4.60;;
18166;SDS011;9208;42.688;23.404;2022-08-19T12:48:03;6.82;;;4.50;;
18166;SDS011;9208;42.688;23.404;2022-08-19T12:50:29;5.68;;;5.18;;
18166;SDS011;9208;42.688;23.404;2022-08-19T12:52:55;6.93;;;4.57;;
18166;SDS011;9208;42.688;23.404;2022-08-19T12:55:21;6.80;;;4.78;;
18166;SDS011;9208;42.688;23.404;2022-08-19T12:57:47;4.88;;;4.53;;
18166;SDS011;9208;42.688;23.404;2022-08-19T13:00:18;5.30;;;4.75;;
18166;SDS011;9208;42.688;23.404;2022-08-19T13:02:47;5.40;;;4.55;;
18166;SDS011;9208;42.688;23.404;2022-08-19T13:05:17;6.18;;;5.40;;
18166;SDS011;9208;42.688;23.404;2022-08-19T13:07:54;4.90;;;4.50;;
18166;SDS011;9208;42.688;23.404;2022-08-19T13:10:22;6.07;;;4.60;;
18166;SDS011;9208;42.688;23.404;2022-08-19T13:12:50;5.35;;;4.85;;
18166;SDS011;9208;42.688;23.404;2022-08-19T13:15:17;5.50;;;4.70;;
18166;SDS011;9208;42.688;23.404;2022-08-19T13:17:46;8.07;;;4.50;;
18166;SDS011;9208;42.688;23.404;2022-08-19T13:20:17;5.63;;;4.35;;
18166;SDS011;9208;42.688;23.404;2022-08-19T13:22:44;5.07;;;4.68;;
18166;SDS011;9208;42.688;23.404;2022-08-19T13:25:10;5.00;;;4.50;;
18166;SDS011;9208;42.688;23.404;2022-08-19T13:27:37;4.70;;;4.30;;
18166;SDS011;9208;42.688;23.404;2022-08-19T13:30:05;5.53;;;4.95;;
18166;SDS011;9208;42.688;23.404;2022-08-19T13:32:51;5.88;;;4.50;;
18166;SDS011;9208;42.688;23.404;2022-08-19T13:35:35;5.50;;;5.00;;
18166;SDS011;9208;42.688;23.404;2022-08-19T13:38:00;5.53;;;5.03;;
18166;SDS011;9208;42.688;23.404;2022-08-19T13:40:29;6.35;;;5.10;;
18166;SDS011;9208;42.688;23.404;2022-08-19T13:42:59;5.75;;;4.95;;
18166;SDS011;9208;42.688;23.404;2022-08-19T13:45:26;6.88;;;5.10;;
18166;SDS011;9208;42.688;23.404;2022-08-19T13:47:54;4.72;;;4.32;;
18166;SDS011;9208;42.688;23.404;2022-08-19T13:50:23;5.28;;;4.88;;
18166;SDS011;9208;42.688;23.404;2022-08-19T13:52:52;6.32;;;5.10;;
18166;SDS011;9208;42.688;23.404;2022-08-19T13:55:19;5.47;;;4.93;;
18166;SDS011;9208;42.688;23.404;2022-08-19T13:57:45;6.07;;;5.25;;
18166;SDS011;9208;42.688;23.404;2022-08-19T14:00:15;9.43;;;4.80;;
18166;SDS011;9208;42.688;23.404;2022-08-19T14:02:43;6.90;;;4.47;;
18166;SDS011;9208;42.688;23.404;2022-08-19T14:05:10;5.82;;;5.13;;
18166;SDS011;9208;42.688;23.404;2022-08-19T14:07:37;4.93;;;4.45;;
18166;SDS011;9208;42.688;23.404;2022-08-19T14:10:04;8.88;;;4.88;;
18166;SDS011;9208;42.688;23.404;2022-08-19T14:12:31;6.45;;;4.60;;
18166;SDS011;9208;42.688;23.404;2022-08-19T14:14:57;5.63;;;4.63;;
18166;SDS011;9208;42.688;23.404;2022-08-19T14:17:23;5.60;;;4.28;;
18166;SDS011;9208;42.688;23.404;2022-08-19T14:19:49;4.75;;;4.32;;
18166;SDS011;9208;42.688;23.404;2022-08-19T14:22:21;5.18;;;4.60;;
18166;SDS011;9208;42.688;23.404;2022-08-19T14:24:46;6.60;;;4.80;;
18166;SDS011;9208;42.688;23.404;2022-08-19T14:27:13;5.25;;;4.75;;
18166;SDS011;9208;42.688;23.404;2022-08-19T14:29:39;5.05;;;4.65;;
18166;SDS011;9208;42.688;23.404;2022-08-19T14:32:05;4.85;;;4.35;;
18166;SDS011;9208;42.688;23.404;2022-08-19T14:34:31;5.20;;;4.68;;
18166;SDS011;9208;42.688;23.404;2022-08-19T14:36:57;5.05;;;4.57;;
18166;SDS011;9208;42.688;23.404;2022-08-19T14:39:23;5.03;;;4.63;;
18166;SDS011;9208;42.688;23.404;2022-08-19T14:41:48;5.57;;;4.60;;
18166;SDS011;9208;42.688;23.404;2022-08-19T14:44:14;6.13;;;4.50;;
18166;SDS011;9208;42.688;23.404;2022-08-19T14:46:40;5.43;;;4.93;;
18166;SDS011;9208;42.688;23.404;2022-08-19T14:49:05;5.68;;;4.13;;
18166;SDS011;9208;42.688;23.404;2022-08-19T14:51:32;5.75;;;4.75;;
18166;SDS011;9208;42.688;23.404;2022-08-19T14:53:58;5.20;;;4.70;;
18166;SDS011;9208;42.688;23.404;2022-08-19T14:56:26;5.13;;;4.65;;
18166;SDS011;9208;42.688;23.404;2022-08-19T14:58:53;5.90;;;4.85;;
18166;SDS011;9208;42.688;23.404;2022-08-19T15:01:20;6.80;;;5.32;;
18166;SDS011;9208;42.688;23.404;2022-08-19T15:03:48;5.03;;;4.63;;